createdAt,value
2018-11-21T00:01:26.109Z,93.82
2018-11-21T00:04:13.897Z,94.02
2018-11-21T00:06:42.559Z,93.70
2018-11-21T00:09:30.405Z,93.62
2018-11-21T00:11:59.116Z,93.73
2018-11-21T00:14:47.120Z,93.62
2018-11-21T00:17:16.035Z,94.01
2018-11-21T00:20:03.858Z,94.23
2018-11-21T00:22:51.687Z,94.48
2018-11-21T00:25:20.597Z,94.51
2018-11-21T00:28:08.610Z,94.45
2018-11-21T00:30:56.042Z,94.32
2018-11-21T00:33:44.483Z,94.42
2018-11-21T00:41:55.632Z,93.62
2018-11-21T00:44:24.278Z,93.66
2018-11-21T00:46:53.191Z,93.80
2018-11-21T00:49:41.023Z,93.90
2018-11-21T00:52:28.800Z,94.01
2018-11-21T00:55:16.582Z,94.16
2018-11-21T00:58:04.367Z,94.33
2018-11-21T01:00:33.034Z,94.17
2018-11-21T01:03:01.923Z,93.63
2018-11-21T01:08:26.384Z,93.41
2018-11-21T01:10:55.300Z,92.74
2018-11-21T01:13:24.292Z,92.43
2018-11-21T01:16:12.106Z,92.74
2018-11-21T01:18:41.291Z,93.20
2018-11-21T01:24:20.164Z,93.30
2018-11-21T01:26:49.375Z,92.93
2018-11-21T01:29:37.186Z,92.90
2018-11-21T01:32:06.053Z,92.66
2018-11-21T01:34:34.981Z,92.73
2018-11-21T01:37:22.815Z,92.96
2018-11-21T01:40:10.589Z,93.06
2018-11-21T01:42:39.293Z,93.42
2018-11-21T01:45:27.006Z,93.14
2018-11-21T01:47:55.691Z,93.17
2018-11-21T01:50:25.579Z,93.42
2018-11-21T01:55:49.363Z,93.57
2018-11-21T01:58:37.122Z,93.15
2018-11-21T02:01:05.849Z,92.82
2018-11-21T02:03:34.475Z,92.51
2018-11-21T02:06:22.266Z,92.39
2018-11-21T02:09:10.068Z,92.52
2018-11-21T02:11:57.855Z,93.10
2018-11-21T02:14:45.635Z,93.36
2018-11-21T02:17:33.413Z,93.77
2018-11-21T02:20:21.597Z,93.69
2018-11-21T02:23:10.006Z,93.61
2018-11-21T02:25:58.278Z,93.67
2018-11-21T02:29:05.551Z,93.49
2018-11-21T02:31:53.748Z,93.20
2018-11-21T02:37:16.837Z,92.74
2018-11-21T02:40:04.650Z,92.43
2018-11-21T02:42:52.402Z,92.37
2018-11-21T02:45:21.127Z,92.23
2018-11-21T02:48:08.899Z,91.61
2018-11-21T02:50:37.643Z,91.81
2018-11-21T02:53:06.426Z,92.18
2018-11-21T02:55:37.107Z,92.38
2018-11-21T02:58:24.875Z,92.74
2018-11-21T03:00:53.517Z,92.38
2018-11-21T03:03:22.387Z,92.10
2018-11-21T03:05:51.264Z,92.12
2018-11-21T03:08:20.166Z,92.73
2018-11-21T03:11:09.027Z,93.07
2018-11-21T03:13:59.044Z,92.66
2018-11-21T03:16:47.782Z,92.36
2018-11-21T03:22:12.064Z,92.05
2018-11-21T03:24:59.818Z,92.46
2018-11-21T03:27:28.490Z,92.78
2018-11-21T03:29:57.177Z,93.38
2018-11-21T03:32:26.383Z,93.30
2018-11-21T03:35:34.443Z,93.19
2018-11-21T03:38:24.464Z,93.50
2018-11-21T03:41:13.998Z,93.80
2018-11-21T03:43:42.815Z,93.99
2018-11-21T03:46:11.694Z,93.93
2018-11-21T03:48:59.471Z,94.08
2018-11-21T03:51:28.329Z,94.01
2018-11-21T03:54:16.082Z,93.70
2018-11-21T03:57:03.973Z,93.52
2018-11-21T03:59:32.831Z,93.63
2018-11-21T04:02:01.773Z,93.66
2018-11-21T04:04:49.540Z,93.73
2018-11-21T04:07:39.175Z,93.70
2018-11-21T04:10:30.238Z,93.78
2018-11-21T04:13:18.652Z,94.12
2018-11-21T04:16:07.422Z,94.38
2018-11-21T04:18:36.108Z,94.58
2018-11-21T04:21:05.499Z,94.64
2018-11-21T04:23:36.506Z,94.52
2018-11-21T04:26:05.522Z,94.60
2018-11-21T04:28:35.482Z,94.85
2018-11-21T04:31:43.489Z,94.74
2018-11-21T04:34:15.092Z,94.55
2018-11-21T04:36:44.532Z,94.70
2018-11-21T04:39:32.305Z,94.93
2018-11-21T04:42:01.172Z,95.14
2018-11-21T04:44:30.109Z,95.18
2018-11-21T04:47:17.892Z,95.34
2018-11-21T04:50:05.752Z,95.49
2018-11-21T04:52:34.664Z,95.46
2018-11-21T04:55:22.480Z,95.55
2018-11-21T05:03:19.812Z,95.96
2018-11-21T05:05:48.463Z,96.11
2018-11-21T05:08:36.287Z,96.07
2018-11-21T05:11:24.081Z,96.06
2018-11-21T05:14:11.859Z,96.19
2018-11-21T05:19:15.396Z,96.37
2018-11-21T05:22:03.203Z,96.45
2018-11-21T05:24:50.900Z,96.57
2018-11-21T05:27:38.676Z,96.75
2018-11-21T05:30:26.620Z,96.81
2018-11-21T05:33:14.443Z,96.86
2018-11-21T05:36:02.278Z,96.89
2018-11-21T05:38:30.968Z,97.11
2018-11-21T05:40:59.625Z,97.25
2018-11-21T05:43:28.544Z,97.12
2018-11-21T05:49:06.005Z,97.35
2018-11-21T05:51:41.123Z,97.24
2018-11-21T05:54:10.022Z,97.24
2018-11-21T05:57:00.756Z,97.25
2018-11-21T05:59:29.857Z,97.28
2018-11-21T06:02:17.661Z,97.55
2018-11-21T06:04:46.546Z,97.73
2018-11-21T06:07:15.377Z,97.70
2018-11-21T06:09:45.996Z,97.56
2018-11-21T06:12:36.157Z,97.57
2018-11-21T06:18:16.251Z,97.14
2018-11-21T06:23:54.613Z,96.98
2018-11-21T06:26:23.502Z,97.25
2018-11-21T06:29:11.299Z,97.40
2018-11-21T06:31:39.977Z,97.69
2018-11-21T06:34:08.788Z,97.88
2018-11-21T06:39:29.547Z,97.97
2018-11-21T06:42:17.370Z,98.23
2018-11-21T06:44:46.231Z,98.27
2018-11-21T06:47:34.040Z,98.44
2018-11-21T06:50:02.904Z,98.55
2018-11-21T06:55:45.429Z,98.63
2018-11-21T06:58:14.073Z,98.78
2018-11-21T07:01:01.870Z,99.10
2018-11-21T07:03:52.222Z,99.36
2018-11-21T07:06:41.743Z,99.66
2018-11-21T07:09:11.462Z,99.92
2018-11-21T07:11:40.339Z,100.00
2018-11-21T07:14:28.193Z,100.00
2018-11-21T07:16:56.901Z,99.89
2018-11-21T07:19:25.591Z,99.81
2018-11-21T07:21:55.901Z,99.66
2018-11-21T07:24:28.828Z,99.44
2018-11-21T07:27:17.032Z,99.02
2018-11-21T07:29:45.870Z,98.43
2018-11-21T07:32:33.731Z,97.81
2018-11-21T07:37:55.903Z,96.59
2018-11-21T07:40:43.666Z,95.99
2018-11-21T07:43:31.493Z,95.58
2018-11-21T07:46:03.263Z,94.52
2018-11-21T07:51:46.450Z,94.41
2018-11-21T07:54:34.282Z,94.30
2018-11-21T07:58:00.470Z,93.78
2018-11-21T08:01:06.637Z,93.74
2018-11-21T08:04:04.685Z,93.40
2018-11-21T08:06:53.272Z,92.60
2018-11-21T08:09:41.871Z,91.70
2018-11-21T08:12:32.217Z,92.07
2018-11-21T08:15:20.908Z,91.92
2018-11-21T08:21:05.821Z,92.93
2018-11-21T08:23:55.625Z,93.01
2018-11-21T08:26:42.557Z,92.04
2018-11-21T08:29:32.326Z,91.26
2018-11-21T08:32:21.106Z,91.21
2018-11-21T08:35:09.440Z,91.25
2018-11-21T08:37:57.418Z,91.20
2018-11-21T08:40:45.239Z,90.55
2018-11-21T08:43:14.137Z,90.50
2018-11-21T08:45:42.854Z,90.51
2018-11-21T08:48:30.639Z,90.71
2018-11-21T08:50:59.317Z,90.36
2018-11-21T08:53:28.238Z,90.24
2018-11-21T08:56:16.048Z,90.06
2018-11-21T08:58:44.753Z,90.05
2018-11-21T09:01:33.068Z,90.06
2018-11-21T09:04:22.219Z,89.57
2018-11-21T09:07:11.731Z,90.11
2018-11-21T09:09:40.751Z,89.38
2018-11-21T09:12:09.599Z,89.06
2018-11-21T09:14:38.485Z,89.65
2018-11-21T09:17:26.338Z,89.22
2018-11-21T09:19:55.042Z,88.80
2018-11-21T09:22:42.845Z,88.58
2018-11-21T09:25:12.460Z,88.12
2018-11-21T09:27:43.101Z,87.84
2018-11-21T09:33:20.882Z,88.24
2018-11-21T09:35:49.890Z,88.18
2018-11-21T09:38:18.575Z,87.84
2018-11-21T09:41:06.378Z,88.17
2018-11-21T09:43:54.151Z,87.81
2018-11-21T09:46:22.858Z,87.48
2018-11-21T09:49:10.669Z,87.45
2018-11-21T09:51:58.497Z,87.36
2018-11-21T09:54:27.167Z,86.90
2018-11-21T09:57:15.068Z,86.50
2018-11-21T09:59:43.722Z,87.53
2018-11-21T10:02:51.018Z,87.18
2018-11-21T10:05:22.574Z,86.28
2018-11-21T10:08:15.393Z,86.91
2018-11-21T10:13:37.453Z,85.57
2018-11-21T10:16:07.063Z,85.95
2018-11-21T10:18:54.896Z,85.98
2018-11-21T10:21:42.554Z,86.90
2018-11-21T10:27:01.547Z,85.22
2018-11-21T10:29:30.514Z,85.67
2018-11-21T10:31:59.406Z,85.72
2018-11-21T10:34:47.234Z,85.52
2018-11-21T10:37:15.981Z,85.03
2018-11-21T10:40:03.838Z,84.99
2018-11-21T10:42:32.599Z,85.41
2018-11-21T10:45:01.569Z,85.43
2018-11-21T10:47:49.312Z,85.64
2018-11-21T10:50:37.085Z,84.94
2018-11-21T10:53:24.885Z,85.68
2018-11-21T10:55:53.782Z,84.41
2018-11-21T10:58:41.985Z,84.76
2018-11-21T11:01:58.432Z,84.13
2018-11-21T11:10:53.191Z,84.28
2018-11-21T11:13:41.024Z,84.56
2018-11-21T11:16:48.086Z,85.08
2018-11-21T11:19:35.943Z,85.62
2018-11-21T11:22:24.147Z,85.15
2018-11-21T11:25:03.684Z,84.81
2018-11-21T11:27:51.446Z,84.49
2018-11-21T11:30:39.660Z,83.97
2018-11-21T11:33:46.644Z,84.26
2018-11-21T11:36:34.386Z,83.18
2018-11-21T11:39:22.257Z,83.68
2018-11-21T11:42:11.027Z,83.65
2018-11-21T11:44:58.862Z,83.73
2018-11-21T11:47:46.767Z,84.16
2018-11-21T11:50:35.501Z,84.38
2018-11-21T11:53:23.227Z,83.87
2018-11-21T11:56:11.174Z,84.21
2018-11-21T11:58:59.264Z,84.13
2018-11-21T12:01:46.936Z,84.41
2018-11-21T12:04:34.786Z,84.94
2018-11-21T12:07:23.863Z,85.74
2018-11-21T12:10:11.904Z,85.99
2018-11-21T12:13:19.089Z,85.37
2018-11-21T12:16:27.398Z,85.99
2018-11-21T12:19:16.312Z,85.98
2018-11-21T12:22:04.427Z,86.40
2018-11-21T12:24:52.107Z,85.96
2018-11-21T12:27:39.767Z,86.91
2018-11-21T12:30:28.724Z,85.47
2018-11-21T12:33:16.587Z,85.87
2018-11-21T12:36:04.377Z,85.06
2018-11-21T12:39:11.782Z,85.33
2018-11-21T12:41:59.565Z,85.72
2018-11-21T12:44:47.190Z,85.54
2018-11-21T12:47:35.010Z,85.87
2018-11-21T12:50:42.213Z,85.89
2018-11-21T12:53:29.843Z,86.22
2018-11-21T12:56:17.654Z,87.18
2018-11-21T12:59:05.454Z,87.36
2018-11-21T13:01:41.131Z,87.83
2018-11-21T13:04:30.114Z,87.60
2018-11-21T13:07:37.705Z,86.63
2018-11-21T13:10:45.892Z,86.38
2018-11-21T13:13:53.894Z,86.80
2018-11-21T13:17:01.749Z,86.59
2018-11-21T13:19:50.088Z,86.82
2018-11-21T13:22:37.870Z,86.45
2018-11-21T13:25:25.958Z,85.59
2018-11-21T13:28:13.746Z,86.24
2018-11-21T13:31:01.523Z,85.42
2018-11-21T13:33:49.848Z,85.71
2018-11-21T13:36:37.698Z,87.08
2018-11-21T13:39:30.068Z,86.85
2018-11-21T13:42:19.061Z,86.51
2018-11-21T13:45:07.131Z,87.04
2018-11-21T13:48:14.333Z,86.62
2018-11-21T13:51:01.953Z,86.80
2018-11-21T13:54:09.703Z,87.42
2018-11-21T13:56:59.348Z,87.19
2018-11-21T13:59:28.619Z,86.75
2018-11-21T14:01:57.282Z,87.42
2018-11-21T14:04:26.080Z,88.00
2018-11-21T14:07:13.849Z,88.78
2018-11-21T14:09:42.767Z,89.31
2018-11-21T14:12:30.793Z,89.45
2018-11-21T14:15:19.375Z,90.10
2018-11-21T14:18:07.875Z,89.68
2018-11-21T14:20:36.792Z,90.30
2018-11-21T14:23:24.928Z,90.34
2018-11-21T14:25:53.564Z,90.31
2018-11-21T14:28:22.254Z,88.67
2018-11-21T14:31:10.084Z,88.24
2018-11-21T14:33:58.286Z,88.48
2018-11-21T14:36:45.959Z,89.20
2018-11-21T14:39:15.325Z,89.51
2018-11-21T14:42:08.134Z,89.30
2018-11-21T14:44:51.289Z,89.64
2018-11-21T14:47:19.818Z,90.63
2018-11-21T14:50:20.509Z,91.02
2018-11-21T14:53:09.970Z,90.94
2018-11-21T14:55:57.816Z,91.16
2018-11-21T14:58:26.445Z,90.66
2018-11-21T15:01:14.221Z,91.05
2018-11-21T15:03:42.985Z,90.79
2018-11-21T15:06:30.843Z,90.60
2018-11-21T15:08:59.708Z,91.01
2018-11-21T15:11:47.481Z,90.68
2018-11-21T15:14:16.113Z,90.57
2018-11-21T15:19:19.459Z,90.38
2018-11-21T15:21:48.662Z,90.20
2018-11-21T15:27:26.501Z,89.57
2018-11-21T15:30:00.046Z,89.72
2018-11-21T15:32:24.238Z,89.72
2018-11-21T15:35:12.095Z,88.99
2018-11-21T15:37:42.889Z,88.91
2018-11-21T15:40:31.614Z,88.31
2018-11-21T15:43:00.349Z,88.57
2018-11-21T15:45:29.280Z,89.62
2018-11-21T15:48:18.878Z,90.51
2018-11-21T15:51:08.552Z,90.69
2018-11-21T15:53:37.142Z,90.16
2018-11-21T15:56:24.948Z,91.02
2018-11-21T15:58:53.594Z,91.75
2018-11-21T16:01:22.671Z,91.98
2018-11-21T16:03:52.233Z,91.91
2018-11-21T16:06:20.998Z,91.67
2018-11-21T16:08:49.651Z,91.66
2018-11-21T16:11:18.324Z,91.17
2018-11-21T16:14:06.483Z,90.76
2018-11-21T16:16:55.125Z,90.36
2018-11-21T16:22:19.245Z,90.77
2018-11-21T16:25:07.012Z,90.69
2018-11-21T16:27:35.840Z,90.84
2018-11-21T16:30:25.921Z,91.01
2018-11-21T16:32:54.554Z,90.95
2018-11-21T16:35:42.568Z,91.11
2018-11-21T16:38:11.229Z,91.24
2018-11-21T16:40:59.173Z,91.00
2018-11-21T16:43:28.122Z,90.99
2018-11-21T16:45:57.870Z,91.13
2018-11-21T16:48:45.628Z,91.52
2018-11-21T16:51:33.884Z,91.84
2018-11-21T16:54:02.659Z,92.06
2018-11-21T16:56:50.338Z,91.80
2018-11-21T16:59:18.988Z,91.30
2018-11-21T17:01:47.958Z,90.18
2018-11-21T17:04:16.919Z,90.22
2018-11-21T17:07:04.754Z,90.21
2018-11-21T17:09:54.361Z,89.97
2018-11-21T17:12:22.982Z,90.50
2018-11-21T17:14:51.918Z,90.87
2018-11-21T17:17:39.726Z,90.79
2018-11-21T17:23:17.115Z,90.73
2018-11-21T17:25:46.068Z,90.11
2018-11-21T17:28:54.384Z,90.01
2018-11-21T17:31:43.529Z,90.30
2018-11-21T17:34:32.061Z,90.08
2018-11-21T17:37:00.737Z,90.19
2018-11-21T17:39:30.877Z,89.40
2018-11-21T17:42:20.392Z,89.38
2018-11-21T17:44:50.040Z,89.49
2018-11-21T17:47:18.706Z,89.55
2018-11-21T17:49:47.899Z,89.37
2018-11-21T17:52:16.102Z,89.03
2018-11-21T17:55:03.904Z,89.31
2018-11-21T17:57:32.846Z,89.33
2018-11-21T18:00:01.540Z,89.38
2018-11-21T18:02:49.304Z,89.92
2018-11-21T18:08:27.711Z,90.13
2018-11-21T18:10:56.404Z,90.02
2018-11-21T18:13:25.047Z,90.13
2018-11-21T18:16:13.616Z,90.30
2018-11-21T18:18:43.193Z,90.13
2018-11-21T18:21:31.051Z,90.41
2018-11-21T18:24:18.877Z,90.40
2018-11-21T18:26:47.526Z,90.20
2018-11-21T18:29:16.431Z,90.30
2018-11-21T18:32:05.775Z,90.73
2018-11-21T18:34:36.137Z,90.95
2018-11-21T18:37:05.226Z,91.21
2018-11-21T18:39:34.114Z,90.86
2018-11-21T18:42:03.039Z,90.65
2018-11-21T18:44:50.830Z,90.74
2018-11-21T18:47:19.564Z,90.96
2018-11-21T18:50:11.113Z,90.67
2018-11-21T18:52:37.128Z,90.30
2018-11-21T18:55:09.926Z,89.85
2018-11-21T18:58:00.769Z,89.65
2018-11-21T19:00:32.125Z,89.59
2018-11-21T19:03:01.025Z,89.04
2018-11-21T19:05:29.795Z,89.20
2018-11-21T19:08:17.649Z,89.42
2018-11-21T19:11:05.871Z,89.65
2018-11-21T19:16:41.287Z,90.64
2018-11-21T19:19:29.275Z,90.50
2018-11-21T19:21:57.968Z,90.89
2018-11-21T19:24:26.842Z,90.69
2018-11-21T19:26:55.770Z,90.84
2018-11-21T19:29:24.677Z,90.98
2018-11-21T19:31:53.513Z,91.24
2018-11-21T19:34:22.233Z,90.92
2018-11-21T19:36:51.025Z,91.18
2018-11-21T19:39:38.793Z,91.26
2018-11-21T19:42:07.526Z,91.44
2018-11-21T19:44:55.380Z,92.00
2018-11-21T19:47:24.053Z,91.87
2018-11-21T19:50:11.891Z,91.71
2018-11-21T19:52:59.727Z,91.77
2018-11-21T19:55:47.517Z,91.64
2018-11-21T19:58:16.209Z,91.79
2018-11-21T20:01:04.059Z,92.15
2018-11-21T20:03:32.784Z,92.27
2018-11-21T20:06:01.529Z,92.16
2018-11-21T20:08:30.311Z,91.90
2018-11-21T20:10:59.238Z,91.79
2018-11-21T20:13:47.068Z,91.85
2018-11-21T20:16:15.967Z,91.52
2018-11-21T20:19:03.737Z,91.29
2018-11-21T20:21:32.439Z,91.45
2018-11-21T20:24:01.440Z,91.61
2018-11-21T20:26:30.397Z,91.51
2018-11-21T20:28:59.536Z,91.35
2018-11-21T20:31:28.434Z,91.00
2018-11-21T20:34:16.126Z,90.93
2018-11-21T20:36:44.873Z,91.04
2018-11-21T20:39:32.645Z,90.79
2018-11-21T20:42:20.543Z,91.20
2018-11-21T20:44:49.201Z,91.46
2018-11-21T20:47:18.074Z,91.44
2018-11-21T20:50:05.943Z,91.25
2018-11-21T20:52:34.649Z,91.22
2018-11-21T20:55:29.389Z,90.83
2018-11-21T20:57:58.327Z,91.10
2018-11-21T21:00:46.114Z,91.11
2018-11-21T21:03:14.816Z,91.22
2018-11-21T21:06:02.668Z,91.47
2018-11-21T21:08:31.542Z,90.80
2018-11-21T21:11:00.464Z,90.59
2018-11-21T21:13:48.274Z,90.25
2018-11-21T21:16:16.934Z,90.07
2018-11-21T21:19:04.822Z,90.33
2018-11-21T21:21:33.659Z,90.98
2018-11-21T21:24:21.526Z,91.28
2018-11-21T21:26:50.239Z,90.28
2018-11-21T21:29:38.046Z,90.39
2018-11-21T21:32:07.036Z,90.84
2018-11-21T21:34:54.850Z,91.11
2018-11-21T21:37:23.781Z,91.13
2018-11-21T21:40:11.592Z,90.99
2018-11-21T21:42:40.777Z,90.68
2018-11-21T21:45:11.543Z,90.86
2018-11-21T21:47:41.682Z,90.75
2018-11-21T21:50:10.575Z,90.78
2018-11-21T21:53:07.046Z,90.96
2018-11-21T21:55:55.328Z,91.06
2018-11-21T21:58:24.235Z,90.96
2018-11-21T22:00:53.078Z,90.61
2018-11-21T22:03:22.000Z,90.52
2018-11-21T22:06:11.342Z,90.53
2018-11-21T22:09:00.219Z,90.45
2018-11-21T22:11:28.911Z,90.77
2018-11-21T22:13:57.707Z,90.78
2018-11-21T22:16:27.215Z,90.81
2018-11-21T22:19:15.199Z,90.99
2018-11-21T22:21:44.093Z,91.16
2018-11-21T22:24:33.391Z,90.33
2018-11-21T22:27:03.100Z,89.16
2018-11-21T22:29:31.975Z,89.53
2018-11-21T22:32:02.210Z,90.24
2018-11-21T22:34:34.398Z,90.44
2018-11-21T22:37:22.432Z,90.20
2018-11-21T22:39:51.547Z,90.50
2018-11-21T22:42:20.431Z,91.03
2018-11-21T22:45:08.108Z,91.39
2018-11-21T22:47:36.825Z,91.57
2018-11-21T22:50:08.271Z,91.81
2018-11-21T22:55:57.774Z,91.06
2018-11-21T22:59:06.780Z,91.07
2018-11-21T23:01:37.311Z,91.00
2018-11-21T23:04:06.128Z,90.82
2018-11-21T23:06:35.054Z,91.33
2018-11-21T23:09:22.863Z,91.52
2018-11-21T23:12:10.650Z,91.75
2018-11-21T23:14:39.351Z,91.99
2018-11-21T23:17:27.164Z,92.25
2018-11-21T23:22:34.558Z,91.64
2018-11-21T23:25:03.265Z,91.49
2018-11-21T23:27:50.987Z,91.45
2018-11-21T23:30:20.259Z,91.48
2018-11-21T23:32:49.848Z,91.45
2018-11-21T23:41:35.520Z,91.82
2018-11-21T23:44:05.974Z,91.92
2018-11-21T23:46:34.855Z,92.19
2018-11-21T23:49:03.800Z,92.23
2018-11-21T23:51:51.558Z,92.20
2018-11-21T23:54:20.308Z,92.10
2018-11-21T23:57:16.111Z,92.18
2018-11-21T23:59:36.755Z,91.23
